Douglas, Alaska
Current Conditions -  °F | °C
As of 6:53 AM on Thursday 30 Oct 2014 (Local Time) from PAJN Reporting Station
Light Rain Light Rain  
Wind Chill: 39°   Ceiling: 5500
Heat Index: 43°   Visibility: 10mi
Dew Point: 38°   Wind: 6mph
Humidity: 82%   Direction: 250°WSW
Pressure: 29.49"   Gusts: NA
Location:  58.27°N, 134.41°W
Report Text: PAJN 301453Z 25005KT 10SM -RA BKN055 OVC070 06/03 A2949 RMK AO2 RAB47 SLP985 P0000 60000 T00610033 55025
Loading
Personal Weather Stations






























Interactive Weather Map
Tropical Storm Tracking
New forecast layout! Learn more

10-Day Weather Forecast

Advertisements
Track Severe Weather on mobile